sensor_id;sensor_type;location;lat;lon;timestamp;P1;durP1;ratioP1;P2;durP2;ratioP2
61572;SDS011;47465;43.094;12.434;2022-07-29T00:02:13;11.35;;;7.80;;
61572;SDS011;47465;43.094;12.434;2022-07-29T00:04:40;10.18;;;7.63;;
61572;SDS011;47465;43.094;12.434;2022-07-29T00:07:06;10.32;;;7.60;;
61572;SDS011;47465;43.094;12.434;2022-07-29T00:09:32;8.98;;;7.43;;
61572;SDS011;47465;43.094;12.434;2022-07-29T00:11:58;10.85;;;7.72;;
61572;SDS011;47465;43.094;12.434;2022-07-29T00:14:25;10.60;;;7.97;;
61572;SDS011;47465;43.094;12.434;2022-07-29T00:16:51;11.10;;;7.25;;
61572;SDS011;47465;43.094;12.434;2022-07-29T00:19:17;10.07;;;7.25;;
61572;SDS011;47465;43.094;12.434;2022-07-29T00:21:44;11.20;;;7.20;;
61572;SDS011;47465;43.094;12.434;2022-07-29T00:24:10;10.43;;;7.10;;
61572;SDS011;47465;43.094;12.434;2022-07-29T00:26:36;8.75;;;7.07;;
61572;SDS011;47465;43.094;12.434;2022-07-29T00:29:03;10.73;;;7.43;;
61572;SDS011;47465;43.094;12.434;2022-07-29T00:31:29;9.43;;;7.13;;
61572;SDS011;47465;43.094;12.434;2022-07-29T00:33:55;10.32;;;7.38;;
61572;SDS011;47465;43.094;12.434;2022-07-29T00:36:22;10.52;;;7.35;;
61572;SDS011;47465;43.094;12.434;2022-07-29T00:38:49;10.43;;;7.68;;
61572;SDS011;47465;43.094;12.434;2022-07-29T00:41:16;10.93;;;7.68;;
61572;SDS011;47465;43.094;12.434;2022-07-29T00:43:42;15.10;;;7.65;;
61572;SDS011;47465;43.094;12.434;2022-07-29T00:46:09;14.23;;;8.25;;
61572;SDS011;47465;43.094;12.434;2022-07-29T00:48:35;10.93;;;8.00;;
61572;SDS011;47465;43.094;12.434;2022-07-29T00:51:01;10.65;;;7.72;;
61572;SDS011;47465;43.094;12.434;2022-07-29T00:53:28;10.43;;;7.57;;
61572;SDS011;47465;43.094;12.434;2022-07-29T00:55:56;11.82;;;8.05;;
61572;SDS011;47465;43.094;12.434;2022-07-29T00:58:23;12.63;;;8.45;;
61572;SDS011;47465;43.094;12.434;2022-07-29T01:00:49;10.05;;;7.60;;
61572;SDS011;47465;43.094;12.434;2022-07-29T01:03:15;12.48;;;8.15;;
61572;SDS011;47465;43.094;12.434;2022-07-29T01:05:42;11.20;;;8.30;;
61572;SDS011;47465;43.094;12.434;2022-07-29T01:08:10;12.30;;;8.83;;
61572;SDS011;47465;43.094;12.434;2022-07-29T01:10:37;12.15;;;8.35;;
61572;SDS011;47465;43.094;12.434;2022-07-29T01:13:06;12.38;;;8.13;;
61572;SDS011;47465;43.094;12.434;2022-07-29T01:15:33;13.70;;;8.05;;
61572;SDS011;47465;43.094;12.434;2022-07-29T01:18:03;12.95;;;9.63;;
61572;SDS011;47465;43.094;12.434;2022-07-29T01:20:39;12.75;;;8.15;;
61572;SDS011;47465;43.094;12.434;2022-07-29T01:26:19;13.27;;;8.75;;
61572;SDS011;47465;43.094;12.434;2022-07-29T01:29:07;14.38;;;8.48;;
61572;SDS011;47465;43.094;12.434;2022-07-29T01:31:42;12.63;;;8.23;;
61572;SDS011;47465;43.094;12.434;2022-07-29T01:34:20;11.45;;;8.75;;
61572;SDS011;47465;43.094;12.434;2022-07-29T01:36:50;11.68;;;8.23;;
61572;SDS011;47465;43.094;12.434;2022-07-29T01:39:23;13.85;;;8.55;;
61572;SDS011;47465;43.094;12.434;2022-07-29T01:41:54;11.25;;;8.20;;
61572;SDS011;47465;43.094;12.434;2022-07-29T01:44:27;12.80;;;8.13;;
61572;SDS011;47465;43.094;12.434;2022-07-29T01:46:58;11.15;;;8.35;;
61572;SDS011;47465;43.094;12.434;2022-07-29T01:49:28;11.45;;;8.15;;
61572;SDS011;47465;43.094;12.434;2022-07-29T01:51:57;10.10;;;8.38;;
61572;SDS011;47465;43.094;12.434;2022-07-29T01:54:28;12.18;;;8.48;;
61572;SDS011;47465;43.094;12.434;2022-07-29T01:56:59;12.85;;;8.65;;
61572;SDS011;47465;43.094;12.434;2022-07-29T01:59:28;12.65;;;8.82;;
61572;SDS011;47465;43.094;12.434;2022-07-29T02:01:57;12.10;;;8.55;;
61572;SDS011;47465;43.094;12.434;2022-07-29T02:04:24;16.02;;;9.27;;
61572;SDS011;47465;43.094;12.434;2022-07-29T02:09:20;13.00;;;9.35;;
61572;SDS011;47465;43.094;12.434;2022-07-29T02:11:49;13.30;;;9.70;;
61572;SDS011;47465;43.094;12.434;2022-07-29T02:14:19;13.75;;;8.90;;
61572;SDS011;47465;43.094;12.434;2022-07-29T02:16:48;14.20;;;9.35;;
61572;SDS011;47465;43.094;12.434;2022-07-29T02:19:18;13.10;;;9.77;;
61572;SDS011;47465;43.094;12.434;2022-07-29T02:21:45;13.02;;;9.45;;
61572;SDS011;47465;43.094;12.434;2022-07-29T02:24:12;14.98;;;9.55;;
61572;SDS011;47465;43.094;12.434;2022-07-29T02:26:41;13.27;;;9.80;;
61572;SDS011;47465;43.094;12.434;2022-07-29T02:29:09;15.45;;;9.95;;
61572;SDS011;47465;43.094;12.434;2022-07-29T02:31:38;12.50;;;9.77;;
61572;SDS011;47465;43.094;12.434;2022-07-29T02:34:10;13.35;;;9.18;;
61572;SDS011;47465;43.094;12.434;2022-07-29T02:36:37;13.52;;;8.95;;
61572;SDS011;47465;43.094;12.434;2022-07-29T02:39:04;12.25;;;8.90;;
61572;SDS011;47465;43.094;12.434;2022-07-29T02:41:35;11.48;;;9.05;;
61572;SDS011;47465;43.094;12.434;2022-07-29T02:44:06;11.93;;;9.48;;
61572;SDS011;47465;43.094;12.434;2022-07-29T02:46:35;13.68;;;9.40;;
61572;SDS011;47465;43.094;12.434;2022-07-29T02:49:09;11.77;;;8.63;;
61572;SDS011;47465;43.094;12.434;2022-07-29T02:51:43;13.18;;;8.85;;
61572;SDS011;47465;43.094;12.434;2022-07-29T02:54:18;13.57;;;9.15;;
61572;SDS011;47465;43.094;12.434;2022-07-29T02:56:47;13.57;;;9.05;;
61572;SDS011;47465;43.094;12.434;2022-07-29T02:59:14;12.13;;;8.95;;
61572;SDS011;47465;43.094;12.434;2022-07-29T03:01:46;12.55;;;9.20;;
61572;SDS011;47465;43.094;12.434;2022-07-29T03:04:14;14.10;;;9.65;;
61572;SDS011;47465;43.094;12.434;2022-07-29T03:09:08;11.57;;;8.40;;
61572;SDS011;47465;43.094;12.434;2022-07-29T03:11:35;11.20;;;7.95;;
61572;SDS011;47465;43.094;12.434;2022-07-29T03:14:03;11.35;;;8.93;;
61572;SDS011;47465;43.094;12.434;2022-07-29T03:16:30;11.32;;;9.57;;
61572;SDS011;47465;43.094;12.434;2022-07-29T03:19:00;11.85;;;8.68;;
61572;SDS011;47465;43.094;12.434;2022-07-29T03:21:29;14.32;;;9.15;;
61572;SDS011;47465;43.094;12.434;2022-07-29T03:23:55;13.15;;;8.70;;
61572;SDS011;47465;43.094;12.434;2022-07-29T03:26:21;12.38;;;8.95;;
61572;SDS011;47465;43.094;12.434;2022-07-29T03:28:47;12.10;;;8.70;;
61572;SDS011;47465;43.094;12.434;2022-07-29T03:31:13;10.73;;;8.45;;
61572;SDS011;47465;43.094;12.434;2022-07-29T03:33:39;11.50;;;8.57;;
61572;SDS011;47465;43.094;12.434;2022-07-29T03:36:05;12.55;;;8.93;;
61572;SDS011;47465;43.094;12.434;2022-07-29T03:38:33;14.57;;;8.77;;
61572;SDS011;47465;43.094;12.434;2022-07-29T03:41:01;13.18;;;9.52;;
61572;SDS011;47465;43.094;12.434;2022-07-29T03:43:32;12.95;;;8.82;;
61572;SDS011;47465;43.094;12.434;2022-07-29T03:46:01;14.05;;;9.32;;
61572;SDS011;47465;43.094;12.434;2022-07-29T03:48:29;11.60;;;9.13;;
61572;SDS011;47465;43.094;12.434;2022-07-29T03:50:58;10.98;;;8.80;;
61572;SDS011;47465;43.094;12.434;2022-07-29T03:53:24;11.75;;;8.85;;
61572;SDS011;47465;43.094;12.434;2022-07-29T03:55:52;13.07;;;9.30;;
61572;SDS011;47465;43.094;12.434;2022-07-29T03:58:22;12.35;;;8.57;;
61572;SDS011;47465;43.094;12.434;2022-07-29T04:00:51;14.07;;;9.63;;
61572;SDS011;47465;43.094;12.434;2022-07-29T04:03:19;12.90;;;9.00;;
61572;SDS011;47465;43.094;12.434;2022-07-29T04:05:47;12.43;;;9.50;;
61572;SDS011;47465;43.094;12.434;2022-07-29T04:08:23;11.60;;;8.48;;
61572;SDS011;47465;43.094;12.434;2022-07-29T04:10:49;13.75;;;9.27;;
61572;SDS011;47465;43.094;12.434;2022-07-29T04:13:16;14.68;;;10.25;;
61572;SDS011;47465;43.094;12.434;2022-07-29T04:15:42;16.55;;;10.50;;
61572;SDS011;47465;43.094;12.434;2022-07-29T04:18:08;16.90;;;10.07;;
61572;SDS011;47465;43.094;12.434;2022-07-29T04:20:34;14.68;;;10.68;;
61572;SDS011;47465;43.094;12.434;2022-07-29T04:23:00;14.93;;;10.85;;
61572;SDS011;47465;43.094;12.434;2022-07-29T04:25:26;16.60;;;10.82;;
61572;SDS011;47465;43.094;12.434;2022-07-29T04:27:52;16.15;;;10.70;;
61572;SDS011;47465;43.094;12.434;2022-07-29T04:30:26;19.85;;;10.80;;
61572;SDS011;47465;43.094;12.434;2022-07-29T04:32:52;14.35;;;10.05;;
61572;SDS011;47465;43.094;12.434;2022-07-29T04:35:18;15.23;;;9.93;;
61572;SDS011;47465;43.094;12.434;2022-07-29T04:37:44;15.88;;;10.10;;
61572;SDS011;47465;43.094;12.434;2022-07-29T04:40:10;15.15;;;10.05;;
61572;SDS011;47465;43.094;12.434;2022-07-29T04:42:37;12.45;;;9.40;;
61572;SDS011;47465;43.094;12.434;2022-07-29T04:45:03;16.27;;;9.60;;
61572;SDS011;47465;43.094;12.434;2022-07-29T04:47:30;14.43;;;9.23;;
61572;SDS011;47465;43.094;12.434;2022-07-29T04:49:56;14.13;;;8.98;;
61572;SDS011;47465;43.094;12.434;2022-07-29T04:52:22;13.80;;;9.60;;
61572;SDS011;47465;43.094;12.434;2022-07-29T04:54:48;13.40;;;9.13;;
61572;SDS011;47465;43.094;12.434;2022-07-29T04:57:14;13.85;;;10.02;;
61572;SDS011;47465;43.094;12.434;2022-07-29T04:59:40;14.80;;;10.00;;
61572;SDS011;47465;43.094;12.434;2022-07-29T05:02:05;14.30;;;10.75;;
61572;SDS011;47465;43.094;12.434;2022-07-29T05:04:33;13.82;;;9.40;;
61572;SDS011;47465;43.094;12.434;2022-07-29T05:06:59;12.15;;;9.52;;
61572;SDS011;47465;43.094;12.434;2022-07-29T05:09:24;14.27;;;10.05;;
61572;SDS011;47465;43.094;12.434;2022-07-29T05:11:50;17.17;;;10.38;;
61572;SDS011;47465;43.094;12.434;2022-07-29T05:14:16;13.15;;;9.32;;
61572;SDS011;47465;43.094;12.434;2022-07-29T05:16:42;12.98;;;9.98;;
61572;SDS011;47465;43.094;12.434;2022-07-29T05:19:08;12.68;;;9.25;;
61572;SDS011;47465;43.094;12.434;2022-07-29T05:21:36;15.13;;;9.05;;
61572;SDS011;47465;43.094;12.434;2022-07-29T05:24:02;12.85;;;9.15;;
61572;SDS011;47465;43.094;12.434;2022-07-29T05:26:28;10.82;;;8.88;;
61572;SDS011;47465;43.094;12.434;2022-07-29T05:28:54;11.48;;;8.30;;
61572;SDS011;47465;43.094;12.434;2022-07-29T05:31:20;13.05;;;8.70;;
61572;SDS011;47465;43.094;12.434;2022-07-29T05:33:45;12.25;;;8.43;;
61572;SDS011;47465;43.094;12.434;2022-07-29T05:36:11;12.82;;;9.05;;
61572;SDS011;47465;43.094;12.434;2022-07-29T05:38:38;16.00;;;10.30;;
61572;SDS011;47465;43.094;12.434;2022-07-29T05:41:04;14.30;;;10.15;;
61572;SDS011;47465;43.094;12.434;2022-07-29T05:43:30;13.55;;;8.73;;
61572;SDS011;47465;43.094;12.434;2022-07-29T05:45:56;12.40;;;8.70;;
61572;SDS011;47465;43.094;12.434;2022-07-29T05:48:23;10.00;;;7.80;;
61572;SDS011;47465;43.094;12.434;2022-07-29T05:50:48;10.45;;;8.57;;
61572;SDS011;47465;43.094;12.434;2022-07-29T05:53:14;11.93;;;8.02;;
61572;SDS011;47465;43.094;12.434;2022-07-29T05:55:42;13.77;;;8.55;;
61572;SDS011;47465;43.094;12.434;2022-07-29T05:58:08;11.02;;;8.55;;
61572;SDS011;47465;43.094;12.434;2022-07-29T06:00:34;12.13;;;8.18;;
61572;SDS011;47465;43.094;12.434;2022-07-29T06:03:00;14.48;;;8.57;;
61572;SDS011;47465;43.094;12.434;2022-07-29T06:05:26;11.07;;;8.80;;
61572;SDS011;47465;43.094;12.434;2022-07-29T06:07:52;12.55;;;9.18;;
61572;SDS011;47465;43.094;12.434;2022-07-29T06:10:18;12.15;;;9.45;;
61572;SDS011;47465;43.094;12.434;2022-07-29T06:12:45;10.00;;;8.30;;
61572;SDS011;47465;43.094;12.434;2022-07-29T06:15:11;11.50;;;9.30;;
61572;SDS011;47465;43.094;12.434;2022-07-29T06:17:37;13.32;;;9.40;;
61572;SDS011;47465;43.094;12.434;2022-07-29T06:20:03;11.52;;;9.23;;
61572;SDS011;47465;43.094;12.434;2022-07-29T06:22:29;14.38;;;9.40;;
61572;SDS011;47465;43.094;12.434;2022-07-29T06:24:55;12.07;;;9.13;;
61572;SDS011;47465;43.094;12.434;2022-07-29T06:27:21;11.55;;;9.00;;
61572;SDS011;47465;43.094;12.434;2022-07-29T06:29:48;11.90;;;8.93;;
61572;SDS011;47465;43.094;12.434;2022-07-29T06:32:14;14.48;;;8.70;;
61572;SDS011;47465;43.094;12.434;2022-07-29T06:34:40;12.40;;;8.60;;
61572;SDS011;47465;43.094;12.434;2022-07-29T14:19:34;7.55;;;5.95;;
61572;SDS011;47465;43.094;12.434;2022-07-29T14:24:26;9.85;;;6.18;;
61572;SDS011;47465;43.094;12.434;2022-07-29T14:26:52;11.13;;;6.30;;
61572;SDS011;47465;43.094;12.434;2022-07-29T14:29:18;9.38;;;6.15;;
61572;SDS011;47465;43.094;12.434;2022-07-29T14:31:44;10.10;;;6.32;;
61572;SDS011;47465;43.094;12.434;2022-07-29T14:34:10;11.15;;;5.97;;
61572;SDS011;47465;43.094;12.434;2022-07-29T14:36:37;9.50;;;5.90;;
61572;SDS011;47465;43.094;12.434;2022-07-29T14:39:03;9.10;;;6.18;;
61572;SDS011;47465;43.094;12.434;2022-07-29T14:41:29;12.82;;;6.75;;
61572;SDS011;47465;43.094;12.434;2022-07-29T14:43:55;9.60;;;6.20;;
61572;SDS011;47465;43.094;12.434;2022-07-29T14:46:21;8.80;;;5.80;;
61572;SDS011;47465;43.094;12.434;2022-07-29T14:48:47;8.23;;;6.13;;
61572;SDS011;47465;43.094;12.434;2022-07-29T14:51:13;10.93;;;6.57;;
61572;SDS011;47465;43.094;12.434;2022-07-29T14:53:41;9.68;;;6.03;;
61572;SDS011;47465;43.094;12.434;2022-07-29T14:56:07;10.07;;;6.53;;
61572;SDS011;47465;43.094;12.434;2022-07-29T14:58:32;9.23;;;6.18;;
61572;SDS011;47465;43.094;12.434;2022-07-29T15:00:58;8.85;;;5.65;;
61572;SDS011;47465;43.094;12.434;2022-07-29T15:03:24;11.65;;;6.25;;
61572;SDS011;47465;43.094;12.434;2022-07-29T15:05:50;9.35;;;6.20;;
61572;SDS011;47465;43.094;12.434;2022-07-29T15:08:16;10.05;;;5.85;;
61572;SDS011;47465;43.094;12.434;2022-07-29T15:10:43;9.88;;;6.00;;
61572;SDS011;47465;43.094;12.434;2022-07-29T15:13:09;8.63;;;5.88;;
61572;SDS011;47465;43.094;12.434;2022-07-29T15:15:35;9.63;;;6.30;;
61572;SDS011;47465;43.094;12.434;2022-07-29T15:18:01;8.15;;;5.47;;
61572;SDS011;47465;43.094;12.434;2022-07-29T15:20:31;9.50;;;5.40;;
61572;SDS011;47465;43.094;12.434;2022-07-29T15:22:57;7.63;;;5.30;;
61572;SDS011;47465;43.094;12.434;2022-07-29T15:25:23;12.77;;;6.18;;
61572;SDS011;47465;43.094;12.434;2022-07-29T15:27:52;12.82;;;5.90;;
61572;SDS011;47465;43.094;12.434;2022-07-29T15:30:18;12.23;;;6.10;;
61572;SDS011;47465;43.094;12.434;2022-07-29T15:32:44;9.70;;;6.35;;
61572;SDS011;47465;43.094;12.434;2022-07-29T15:35:09;8.25;;;5.40;;
61572;SDS011;47465;43.094;12.434;2022-07-29T15:37:35;7.70;;;5.45;;
61572;SDS011;47465;43.094;12.434;2022-07-29T15:40:01;8.40;;;5.80;;
61572;SDS011;47465;43.094;12.434;2022-07-29T15:42:28;11.05;;;5.93;;
61572;SDS011;47465;43.094;12.434;2022-07-29T15:44:55;10.23;;;6.10;;
61572;SDS011;47465;43.094;12.434;2022-07-29T15:47:21;11.02;;;6.20;;
61572;SDS011;47465;43.094;12.434;2022-07-29T15:49:47;10.93;;;6.78;;
61572;SDS011;47465;43.094;12.434;2022-07-29T15:52:14;14.70;;;6.20;;
61572;SDS011;47465;43.094;12.434;2022-07-29T15:54:41;13.88;;;6.22;;
61572;SDS011;47465;43.094;12.434;2022-07-29T15:57:07;14.38;;;6.93;;
61572;SDS011;47465;43.094;12.434;2022-07-29T15:59:33;12.77;;;6.80;;
61572;SDS011;47465;43.094;12.434;2022-07-29T16:02:01;11.80;;;6.47;;
61572;SDS011;47465;43.094;12.434;2022-07-29T16:04:27;10.30;;;5.80;;
61572;SDS011;47465;43.094;12.434;2022-07-29T16:06:53;13.25;;;6.30;;
61572;SDS011;47465;43.094;12.434;2022-07-29T16:09:19;9.88;;;6.03;;
61572;SDS011;47465;43.094;12.434;2022-07-29T16:11:45;13.80;;;6.10;;
61572;SDS011;47465;43.094;12.434;2022-07-29T16:14:13;10.23;;;6.30;;
61572;SDS011;47465;43.094;12.434;2022-07-29T16:16:38;12.07;;;5.78;;
61572;SDS011;47465;43.094;12.434;2022-07-29T16:19:07;11.63;;;6.63;;
61572;SDS011;47465;43.094;12.434;2022-07-29T16:21:34;10.85;;;5.95;;
61572;SDS011;47465;43.094;12.434;2022-07-29T16:24:00;10.30;;;6.25;;
61572;SDS011;47465;43.094;12.434;2022-07-29T16:26:27;10.13;;;5.95;;
61572;SDS011;47465;43.094;12.434;2022-07-29T16:28:52;8.85;;;5.68;;
61572;SDS011;47465;43.094;12.434;2022-07-29T16:31:18;8.63;;;5.22;;
61572;SDS011;47465;43.094;12.434;2022-07-29T16:33:47;8.73;;;5.45;;
61572;SDS011;47465;43.094;12.434;2022-07-29T16:36:14;7.60;;;5.55;;
61572;SDS011;47465;43.094;12.434;2022-07-29T16:38:40;7.43;;;5.63;;
61572;SDS011;47465;43.094;12.434;2022-07-29T16:41:06;7.07;;;5.30;;
61572;SDS011;47465;43.094;12.434;2022-07-29T16:43:32;10.30;;;5.20;;
61572;SDS011;47465;43.094;12.434;2022-07-29T16:45:58;7.43;;;4.88;;
61572;SDS011;47465;43.094;12.434;2022-07-29T16:48:24;5.65;;;4.35;;
61572;SDS011;47465;43.094;12.434;2022-07-29T16:50:50;7.57;;;4.65;;
61572;SDS011;47465;43.094;12.434;2022-07-29T16:53:17;7.25;;;4.50;;
61572;SDS011;47465;43.094;12.434;2022-07-29T16:55:43;6.03;;;4.10;;
61572;SDS011;47465;43.094;12.434;2022-07-29T16:58:10;5.50;;;4.00;;
61572;SDS011;47465;43.094;12.434;2022-07-29T17:00:36;6.83;;;4.50;;
61572;SDS011;47465;43.094;12.434;2022-07-29T17:03:02;5.32;;;4.03;;
61572;SDS011;47465;43.094;12.434;2022-07-29T17:05:29;7.15;;;4.40;;
61572;SDS011;47465;43.094;12.434;2022-07-29T17:07:55;8.38;;;4.10;;
61572;SDS011;47465;43.094;12.434;2022-07-29T17:10:24;7.97;;;4.43;;
61572;SDS011;47465;43.094;12.434;2022-07-29T17:15:16;6.88;;;4.78;;
61572;SDS011;47465;43.094;12.434;2022-07-29T17:17:43;12.68;;;6.88;;
61572;SDS011;47465;43.094;12.434;2022-07-29T17:20:11;8.20;;;5.10;;
61572;SDS011;47465;43.094;12.434;2022-07-29T17:22:37;8.15;;;4.80;;
61572;SDS011;47465;43.094;12.434;2022-07-29T17:25:05;10.25;;;5.53;;
61572;SDS011;47465;43.094;12.434;2022-07-29T17:27:33;7.32;;;5.00;;
61572;SDS011;47465;43.094;12.434;2022-07-29T17:29:59;9.70;;;5.80;;
61572;SDS011;47465;43.094;12.434;2022-07-29T17:32:25;7.60;;;5.20;;
61572;SDS011;47465;43.094;12.434;2022-07-29T17:34:51;8.45;;;5.20;;
61572;SDS011;47465;43.094;12.434;2022-07-29T17:37:17;9.65;;;5.07;;
61572;SDS011;47465;43.094;12.434;2022-07-29T17:39:43;9.43;;;5.28;;
61572;SDS011;47465;43.094;12.434;2022-07-29T17:42:11;8.15;;;5.15;;
61572;SDS011;47465;43.094;12.434;2022-07-29T17:44:39;9.45;;;4.88;;
61572;SDS011;47465;43.094;12.434;2022-07-29T17:47:05;7.15;;;5.35;;
61572;SDS011;47465;43.094;12.434;2022-07-29T17:49:32;7.07;;;5.28;;
61572;SDS011;47465;43.094;12.434;2022-07-29T17:51:58;8.30;;;5.28;;
61572;SDS011;47465;43.094;12.434;2022-07-29T17:54:24;8.00;;;5.78;;
61572;SDS011;47465;43.094;12.434;2022-07-29T17:56:50;9.05;;;5.15;;
61572;SDS011;47465;43.094;12.434;2022-07-29T17:59:16;8.57;;;5.68;;
61572;SDS011;47465;43.094;12.434;2022-07-29T18:01:43;8.27;;;5.78;;
61572;SDS011;47465;43.094;12.434;2022-07-29T18:04:09;8.38;;;5.47;;
61572;SDS011;47465;43.094;12.434;2022-07-29T18:06:35;7.65;;;5.13;;
61572;SDS011;47465;43.094;12.434;2022-07-29T18:09:01;14.75;;;6.55;;
61572;SDS011;47465;43.094;12.434;2022-07-29T18:11:27;10.10;;;5.93;;
61572;SDS011;47465;43.094;12.434;2022-07-29T18:13:55;12.48;;;6.10;;
61572;SDS011;47465;43.094;12.434;2022-07-29T18:16:21;8.88;;;5.70;;
61572;SDS011;47465;43.094;12.434;2022-07-29T18:18:49;7.30;;;5.38;;
61572;SDS011;47465;43.094;12.434;2022-07-29T18:21:15;6.95;;;5.03;;
61572;SDS011;47465;43.094;12.434;2022-07-29T18:23:41;8.48;;;5.45;;
61572;SDS011;47465;43.094;12.434;2022-07-29T18:26:08;10.15;;;6.03;;
61572;SDS011;47465;43.094;12.434;2022-07-29T18:28:34;9.50;;;5.93;;
61572;SDS011;47465;43.094;12.434;2022-07-29T18:31:00;9.38;;;6.30;;
61572;SDS011;47465;43.094;12.434;2022-07-29T18:33:26;14.77;;;7.32;;
61572;SDS011;47465;43.094;12.434;2022-07-29T18:35:54;13.45;;;7.60;;
61572;SDS011;47465;43.094;12.434;2022-07-29T18:38:20;14.73;;;8.03;;
61572;SDS011;47465;43.094;12.434;2022-07-29T18:40:47;16.33;;;10.18;;
61572;SDS011;47465;43.094;12.434;2022-07-29T18:43:13;42.78;;;27.42;;
61572;SDS011;47465;43.094;12.434;2022-07-29T18:45:39;26.48;;;15.88;;
61572;SDS011;47465;43.094;12.434;2022-07-29T18:48:05;22.13;;;10.85;;
61572;SDS011;47465;43.094;12.434;2022-07-29T18:50:32;18.42;;;9.70;;
61572;SDS011;47465;43.094;12.434;2022-07-29T18:53:00;13.63;;;8.63;;
61572;SDS011;47465;43.094;12.434;2022-07-29T18:55:27;15.15;;;8.60;;
61572;SDS011;47465;43.094;12.434;2022-07-29T18:57:53;11.10;;;6.97;;
61572;SDS011;47465;43.094;12.434;2022-07-29T19:00:19;10.27;;;6.40;;
61572;SDS011;47465;43.094;12.434;2022-07-29T19:02:45;9.73;;;6.07;;
61572;SDS011;47465;43.094;12.434;2022-07-29T19:05:11;17.27;;;7.03;;
61572;SDS011;47465;43.094;12.434;2022-07-29T19:07:37;9.75;;;6.32;;
61572;SDS011;47465;43.094;12.434;2022-07-29T19:10:05;10.18;;;6.28;;
61572;SDS011;47465;43.094;12.434;2022-07-29T19:12:31;10.60;;;6.82;;
61572;SDS011;47465;43.094;12.434;2022-07-29T19:14:57;9.75;;;6.38;;
61572;SDS011;47465;43.094;12.434;2022-07-29T19:17:23;11.02;;;6.88;;
61572;SDS011;47465;43.094;12.434;2022-07-29T19:19:49;10.98;;;6.75;;
61572;SDS011;47465;43.094;12.434;2022-07-29T19:22:18;9.85;;;6.85;;
61572;SDS011;47465;43.094;12.434;2022-07-29T19:24:44;9.38;;;6.53;;
61572;SDS011;47465;43.094;12.434;2022-07-29T19:27:11;9.90;;;6.40;;
61572;SDS011;47465;43.094;12.434;2022-07-29T19:29:37;9.43;;;6.33;;
61572;SDS011;47465;43.094;12.434;2022-07-29T19:32:03;9.80;;;6.38;;
61572;SDS011;47465;43.094;12.434;2022-07-29T19:34:30;9.23;;;5.85;;
61572;SDS011;47465;43.094;12.434;2022-07-29T19:36:56;9.07;;;6.50;;
61572;SDS011;47465;43.094;12.434;2022-07-29T19:39:22;8.10;;;6.30;;
61572;SDS011;47465;43.094;12.434;2022-07-29T19:41:48;11.73;;;6.50;;
61572;SDS011;47465;43.094;12.434;2022-07-29T19:44:16;10.18;;;7.07;;
61572;SDS011;47465;43.094;12.434;2022-07-29T19:46:42;9.30;;;6.22;;
61572;SDS011;47465;43.094;12.434;2022-07-29T19:49:09;11.25;;;6.35;;
61572;SDS011;47465;43.094;12.434;2022-07-29T19:51:37;9.70;;;6.15;;
61572;SDS011;47465;43.094;12.434;2022-07-29T19:54:03;12.98;;;6.40;;
61572;SDS011;47465;43.094;12.434;2022-07-29T19:56:30;11.95;;;6.18;;
61572;SDS011;47465;43.094;12.434;2022-07-29T19:58:56;10.05;;;6.70;;
61572;SDS011;47465;43.094;12.434;2022-07-29T20:01:24;8.52;;;6.43;;
61572;SDS011;47465;43.094;12.434;2022-07-29T20:03:50;9.15;;;6.40;;
61572;SDS011;47465;43.094;12.434;2022-07-29T20:06:16;9.68;;;5.97;;
61572;SDS011;47465;43.094;12.434;2022-07-29T20:08:42;10.48;;;6.30;;
61572;SDS011;47465;43.094;12.434;2022-07-29T20:11:09;13.35;;;7.03;;
61572;SDS011;47465;43.094;12.434;2022-07-29T20:13:35;12.00;;;5.93;;
61572;SDS011;47465;43.094;12.434;2022-07-29T20:16:01;9.32;;;5.90;;
61572;SDS011;47465;43.094;12.434;2022-07-29T20:18:31;9.82;;;5.90;;
61572;SDS011;47465;43.094;12.434;2022-07-29T20:20:56;9.70;;;6.45;;
61572;SDS011;47465;43.094;12.434;2022-07-29T20:23:24;8.15;;;5.88;;
61572;SDS011;47465;43.094;12.434;2022-07-29T20:25:50;7.20;;;5.45;;
61572;SDS011;47465;43.094;12.434;2022-07-29T20:28:16;8.60;;;6.20;;
61572;SDS011;47465;43.094;12.434;2022-07-29T20:30:42;10.45;;;6.00;;
61572;SDS011;47465;43.094;12.434;2022-07-29T20:33:07;9.75;;;5.63;;
61572;SDS011;47465;43.094;12.434;2022-07-29T20:35:35;9.32;;;5.75;;
61572;SDS011;47465;43.094;12.434;2022-07-29T20:38:01;10.52;;;5.90;;
61572;SDS011;47465;43.094;12.434;2022-07-29T20:40:26;8.93;;;5.57;;
61572;SDS011;47465;43.094;12.434;2022-07-29T20:42:53;10.68;;;5.78;;
61572;SDS011;47465;43.094;12.434;2022-07-29T20:45:20;10.35;;;5.90;;
61572;SDS011;47465;43.094;12.434;2022-07-29T20:47:46;11.23;;;6.00;;
61572;SDS011;47465;43.094;12.434;2022-07-29T20:50:12;9.77;;;6.18;;
61572;SDS011;47465;43.094;12.434;2022-07-29T20:52:39;10.25;;;6.35;;
61572;SDS011;47465;43.094;12.434;2022-07-29T20:55:07;9.02;;;6.38;;
61572;SDS011;47465;43.094;12.434;2022-07-29T20:57:33;9.85;;;6.28;;
61572;SDS011;47465;43.094;12.434;2022-07-29T20:59:59;8.57;;;5.93;;
61572;SDS011;47465;43.094;12.434;2022-07-29T21:02:25;10.10;;;6.32;;
61572;SDS011;47465;43.094;12.434;2022-07-29T21:04:51;9.07;;;5.65;;
61572;SDS011;47465;43.094;12.434;2022-07-29T21:07:17;10.38;;;6.22;;
61572;SDS011;47465;43.094;12.434;2022-07-29T21:09:44;13.07;;;6.65;;
61572;SDS011;47465;43.094;12.434;2022-07-29T21:12:10;10.23;;;6.10;;
61572;SDS011;47465;43.094;12.434;2022-07-29T21:14:37;9.27;;;5.90;;
61572;SDS011;47465;43.094;12.434;2022-07-29T21:17:22;9.43;;;6.38;;
61572;SDS011;47465;43.094;12.434;2022-07-29T21:19:48;8.13;;;5.65;;
61572;SDS011;47465;43.094;12.434;2022-07-29T21:22:16;9.18;;;5.93;;
61572;SDS011;47465;43.094;12.434;2022-07-29T21:24:43;12.05;;;6.13;;
61572;SDS011;47465;43.094;12.434;2022-07-29T21:27:09;7.38;;;5.50;;
61572;SDS011;47465;43.094;12.434;2022-07-29T21:30:10;9.73;;;5.80;;
61572;SDS011;47465;43.094;12.434;2022-07-29T21:32:36;12.05;;;5.80;;
61572;SDS011;47465;43.094;12.434;2022-07-29T21:35:02;11.38;;;5.50;;
61572;SDS011;47465;43.094;12.434;2022-07-29T21:37:28;8.32;;;5.20;;
61572;SDS011;47465;43.094;12.434;2022-07-29T21:39:54;10.30;;;5.80;;
61572;SDS011;47465;43.094;12.434;2022-07-29T21:42:19;10.93;;;5.38;;
61572;SDS011;47465;43.094;12.434;2022-07-29T21:44:45;10.18;;;5.50;;
61572;SDS011;47465;43.094;12.434;2022-07-29T21:47:13;8.20;;;5.15;;
61572;SDS011;47465;43.094;12.434;2022-07-29T21:49:38;7.72;;;5.45;;
61572;SDS011;47465;43.094;12.434;2022-07-29T21:52:05;7.45;;;5.13;;
61572;SDS011;47465;43.094;12.434;2022-07-29T21:54:31;9.32;;;5.43;;
61572;SDS011;47465;43.094;12.434;2022-07-29T21:56:57;8.52;;;4.97;;
61572;SDS011;47465;43.094;12.434;2022-07-29T21:59:23;8.52;;;5.32;;
61572;SDS011;47465;43.094;12.434;2022-07-29T22:01:49;8.90;;;5.03;;
61572;SDS011;47465;43.094;12.434;2022-07-29T22:04:16;10.23;;;5.68;;
61572;SDS011;47465;43.094;12.434;2022-07-29T22:06:45;11.68;;;5.40;;
61572;SDS011;47465;43.094;12.434;2022-07-29T22:09:11;8.63;;;5.30;;
61572;SDS011;47465;43.094;12.434;2022-07-29T22:11:37;10.50;;;5.10;;
61572;SDS011;47465;43.094;12.434;2022-07-29T22:14:03;6.68;;;4.85;;
61572;SDS011;47465;43.094;12.434;2022-07-29T22:16:29;8.90;;;5.10;;
61572;SDS011;47465;43.094;12.434;2022-07-29T22:18:55;9.98;;;5.20;;
61572;SDS011;47465;43.094;12.434;2022-07-29T22:21:22;8.93;;;4.70;;